sensor_id;sensor_type;location;lat;lon;timestamp;P1;durP1;ratioP1;P2;durP2;ratioP2
46216;SDS011;47258;59.424;13.482;2022-10-16T00:00:39;1.25;;;0.95;;
46216;SDS011;47258;59.424;13.482;2022-10-16T00:03:07;2.10;;;1.65;;
46216;SDS011;47258;59.424;13.482;2022-10-16T00:05:37;3.30;;;1.30;;
46216;SDS011;47258;59.424;13.482;2022-10-16T00:08:06;1.75;;;1.40;;
46216;SDS011;47258;59.424;13.482;2022-10-16T00:10:34;1.42;;;1.20;;
46216;SDS011;47258;59.424;13.482;2022-10-16T00:13:01;5.10;;;2.20;;
46216;SDS011;47258;59.424;13.482;2022-10-16T00:15:28;7.22;;;2.83;;
46216;SDS011;47258;59.424;13.482;2022-10-16T00:17:57;6.43;;;2.78;;
46216;SDS011;47258;59.424;13.482;2022-10-16T00:20:24;6.18;;;3.42;;
46216;SDS011;47258;59.424;13.482;2022-10-16T00:22:51;4.50;;;3.00;;
46216;SDS011;47258;59.424;13.482;2022-10-16T00:25:18;5.80;;;3.88;;
46216;SDS011;47258;59.424;13.482;2022-10-16T00:27:45;6.50;;;3.17;;
46216;SDS011;47258;59.424;13.482;2022-10-16T00:30:12;6.45;;;3.50;;
46216;SDS011;47258;59.424;13.482;2022-10-16T00:32:39;9.85;;;4.32;;
46216;SDS011;47258;59.424;13.482;2022-10-16T00:35:07;8.90;;;2.90;;
46216;SDS011;47258;59.424;13.482;2022-10-16T00:37:34;4.68;;;2.58;;
46216;SDS011;47258;59.424;13.482;2022-10-16T00:40:01;4.57;;;2.83;;
46216;SDS011;47258;59.424;13.482;2022-10-16T00:42:28;7.20;;;3.20;;
46216;SDS011;47258;59.424;13.482;2022-10-16T00:44:56;5.13;;;2.78;;
46216;SDS011;47258;59.424;13.482;2022-10-16T00:47:24;5.88;;;2.97;;
46216;SDS011;47258;59.424;13.482;2022-10-16T00:49:56;6.47;;;3.08;;
46216;SDS011;47258;59.424;13.482;2022-10-16T00:52:29;6.47;;;3.15;;
46216;SDS011;47258;59.424;13.482;2022-10-16T00:54:56;5.05;;;2.72;;
46216;SDS011;47258;59.424;13.482;2022-10-16T00:57:24;4.85;;;3.00;;
46216;SDS011;47258;59.424;13.482;2022-10-16T00:59:51;5.75;;;3.47;;
46216;SDS011;47258;59.424;13.482;2022-10-16T01:02:19;4.95;;;2.33;;
46216;SDS011;47258;59.424;13.482;2022-10-16T01:04:47;2.60;;;2.40;;
46216;SDS011;47258;59.424;13.482;2022-10-16T01:07:20;10.15;;;3.60;;
46216;SDS011;47258;59.424;13.482;2022-10-16T01:10:01;5.90;;;2.45;;
46216;SDS011;47258;59.424;13.482;2022-10-16T01:12:36;2.22;;;2.03;;
46216;SDS011;47258;59.424;13.482;2022-10-16T01:15:09;4.03;;;2.10;;
46216;SDS011;47258;59.424;13.482;2022-10-16T01:17:41;5.00;;;2.13;;
46216;SDS011;47258;59.424;13.482;2022-10-16T01:20:14;4.00;;;2.10;;
46216;SDS011;47258;59.424;13.482;2022-10-16T01:22:58;2.55;;;2.35;;
46216;SDS011;47258;59.424;13.482;2022-10-16T01:25:39;5.05;;;2.25;;
46216;SDS011;47258;59.424;13.482;2022-10-16T01:28:24;4.15;;;3.55;;
46216;SDS011;47258;59.424;13.482;2022-10-16T01:30:58;8.05;;;4.20;;
46216;SDS011;47258;59.424;13.482;2022-10-16T01:33:28;4.57;;;3.85;;
46216;SDS011;47258;59.424;13.482;2022-10-16T01:36:02;9.38;;;5.57;;
46216;SDS011;47258;59.424;13.482;2022-10-16T01:38:36;12.57;;;4.88;;
46216;SDS011;47258;59.424;13.482;2022-10-16T01:41:06;8.60;;;4.70;;
46216;SDS011;47258;59.424;13.482;2022-10-16T01:43:38;11.27;;;5.00;;
46216;SDS011;47258;59.424;13.482;2022-10-16T01:46:09;6.90;;;5.35;;
46216;SDS011;47258;59.424;13.482;2022-10-16T01:51:06;11.07;;;3.67;;
46216;SDS011;47258;59.424;13.482;2022-10-16T01:53:36;9.30;;;3.60;;
46216;SDS011;47258;59.424;13.482;2022-10-16T01:56:05;9.82;;;3.45;;
46216;SDS011;47258;59.424;13.482;2022-10-16T01:58:37;7.25;;;2.63;;
46216;SDS011;47258;59.424;13.482;2022-10-16T02:01:08;7.70;;;2.03;;
46216;SDS011;47258;59.424;13.482;2022-10-16T02:03:37;6.20;;;2.10;;
46216;SDS011;47258;59.424;13.482;2022-10-16T02:06:08;3.45;;;1.55;;
46216;SDS011;47258;59.424;13.482;2022-10-16T02:08:35;5.57;;;1.90;;
46216;SDS011;47258;59.424;13.482;2022-10-16T02:11:03;4.63;;;1.42;;
46216;SDS011;47258;59.424;13.482;2022-10-16T02:13:31;7.30;;;1.90;;
46216;SDS011;47258;59.424;13.482;2022-10-16T02:16:05;2.05;;;1.02;;
46216;SDS011;47258;59.424;13.482;2022-10-16T02:21:01;4.60;;;1.10;;
46216;SDS011;47258;59.424;13.482;2022-10-16T02:23:35;4.95;;;0.90;;
46216;SDS011;47258;59.424;13.482;2022-10-16T02:26:07;9.10;;;2.17;;
46216;SDS011;47258;59.424;13.482;2022-10-16T02:28:40;15.32;;;1.75;;
46216;SDS011;47258;59.424;13.482;2022-10-16T02:31:12;10.50;;;2.10;;
46216;SDS011;47258;59.424;13.482;2022-10-16T02:33:44;13.73;;;2.55;;
46216;SDS011;47258;59.424;13.482;2022-10-16T02:36:12;6.35;;;1.73;;
46216;SDS011;47258;59.424;13.482;2022-10-16T02:38:39;9.93;;;1.98;;
46216;SDS011;47258;59.424;13.482;2022-10-16T02:41:07;9.48;;;2.40;;
46216;SDS011;47258;59.424;13.482;2022-10-16T02:43:34;9.35;;;2.42;;
46216;SDS011;47258;59.424;13.482;2022-10-16T02:46:01;10.13;;;2.40;;
46216;SDS011;47258;59.424;13.482;2022-10-16T02:48:29;8.52;;;2.25;;
46216;SDS011;47258;59.424;13.482;2022-10-16T02:50:56;7.68;;;1.90;;
46216;SDS011;47258;59.424;13.482;2022-10-16T02:53:23;8.05;;;1.95;;
46216;SDS011;47258;59.424;13.482;2022-10-16T02:55:50;10.50;;;2.40;;
46216;SDS011;47258;59.424;13.482;2022-10-16T02:58:17;11.40;;;2.75;;
46216;SDS011;47258;59.424;13.482;2022-10-16T03:00:44;10.45;;;2.33;;
46216;SDS011;47258;59.424;13.482;2022-10-16T03:03:11;11.30;;;2.80;;
46216;SDS011;47258;59.424;13.482;2022-10-16T03:05:40;12.48;;;2.45;;
46216;SDS011;47258;59.424;13.482;2022-10-16T03:08:06;10.90;;;2.67;;
46216;SDS011;47258;59.424;13.482;2022-10-16T03:10:33;14.20;;;2.80;;
46216;SDS011;47258;59.424;13.482;2022-10-16T03:13:00;14.20;;;2.47;;
46216;SDS011;47258;59.424;13.482;2022-10-16T03:15:27;28.30;;;4.68;;
46216;SDS011;47258;59.424;13.482;2022-10-16T03:17:54;9.75;;;1.98;;
46216;SDS011;47258;59.424;13.482;2022-10-16T03:20:23;13.77;;;2.38;;
46216;SDS011;47258;59.424;13.482;2022-10-16T03:22:51;10.20;;;2.58;;
46216;SDS011;47258;59.424;13.482;2022-10-16T03:25:18;11.45;;;2.22;;
46216;SDS011;47258;59.424;13.482;2022-10-16T03:27:45;18.50;;;2.75;;
46216;SDS011;47258;59.424;13.482;2022-10-16T03:30:12;13.95;;;2.08;;
46216;SDS011;47258;59.424;13.482;2022-10-16T03:32:39;18.13;;;2.95;;
46216;SDS011;47258;59.424;13.482;2022-10-16T03:35:06;11.15;;;1.90;;
46216;SDS011;47258;59.424;13.482;2022-10-16T03:37:33;13.98;;;3.05;;
46216;SDS011;47258;59.424;13.482;2022-10-16T03:40:02;11.48;;;2.55;;
46216;SDS011;47258;59.424;13.482;2022-10-16T03:42:29;17.85;;;3.25;;
46216;SDS011;47258;59.424;13.482;2022-10-16T03:44:56;19.52;;;3.30;;
46216;SDS011;47258;59.424;13.482;2022-10-16T03:47:23;17.27;;;2.72;;
46216;SDS011;47258;59.424;13.482;2022-10-16T03:49:50;12.18;;;2.20;;
46216;SDS011;47258;59.424;13.482;2022-10-16T03:52:17;8.65;;;2.28;;
46216;SDS011;47258;59.424;13.482;2022-10-16T03:54:44;14.07;;;1.58;;
46216;SDS011;47258;59.424;13.482;2022-10-16T03:57:12;13.32;;;2.10;;
46216;SDS011;47258;59.424;13.482;2022-10-16T03:59:39;9.50;;;2.45;;
46216;SDS011;47258;59.424;13.482;2022-10-16T04:02:06;17.55;;;2.08;;
46216;SDS011;47258;59.424;13.482;2022-10-16T04:04:33;24.13;;;3.08;;
46216;SDS011;47258;59.424;13.482;2022-10-16T04:07:00;16.75;;;1.90;;
46216;SDS011;47258;59.424;13.482;2022-10-16T04:09:27;16.17;;;2.65;;
46216;SDS011;47258;59.424;13.482;2022-10-16T04:11:54;10.88;;;1.90;;
46216;SDS011;47258;59.424;13.482;2022-10-16T04:14:22;10.65;;;2.20;;
46216;SDS011;47258;59.424;13.482;2022-10-16T04:16:49;10.07;;;1.58;;
46216;SDS011;47258;59.424;13.482;2022-10-16T04:19:16;14.90;;;2.20;;
46216;SDS011;47258;59.424;13.482;2022-10-16T04:21:43;15.77;;;1.98;;
46216;SDS011;47258;59.424;13.482;2022-10-16T04:24:10;7.20;;;2.10;;
46216;SDS011;47258;59.424;13.482;2022-10-16T04:26:37;7.50;;;1.83;;
46216;SDS011;47258;59.424;13.482;2022-10-16T04:29:04;6.28;;;1.92;;
46216;SDS011;47258;59.424;13.482;2022-10-16T04:31:33;14.45;;;2.15;;
46216;SDS011;47258;59.424;13.482;2022-10-16T04:34:00;4.10;;;1.45;;
46216;SDS011;47258;59.424;13.482;2022-10-16T04:36:27;11.20;;;3.03;;
46216;SDS011;47258;59.424;13.482;2022-10-16T04:38:54;20.23;;;4.15;;
46216;SDS011;47258;59.424;13.482;2022-10-16T04:41:21;15.77;;;2.85;;
46216;SDS011;47258;59.424;13.482;2022-10-16T04:43:48;12.95;;;4.10;;
46216;SDS011;47258;59.424;13.482;2022-10-16T04:46:15;14.15;;;3.58;;
46216;SDS011;47258;59.424;13.482;2022-10-16T04:48:43;10.68;;;3.45;;
46216;SDS011;47258;59.424;13.482;2022-10-16T04:51:11;18.02;;;4.00;;
46216;SDS011;47258;59.424;13.482;2022-10-16T04:53:38;20.95;;;3.60;;
46216;SDS011;47258;59.424;13.482;2022-10-16T04:56:05;16.17;;;3.45;;
46216;SDS011;47258;59.424;13.482;2022-10-16T04:58:32;12.15;;;2.90;;
46216;SDS011;47258;59.424;13.482;2022-10-16T05:00:59;27.48;;;4.35;;
46216;SDS011;47258;59.424;13.482;2022-10-16T05:03:26;13.95;;;3.92;;
46216;SDS011;47258;59.424;13.482;2022-10-16T05:05:54;18.45;;;4.50;;
46216;SDS011;47258;59.424;13.482;2022-10-16T05:08:21;9.95;;;3.47;;
46216;SDS011;47258;59.424;13.482;2022-10-16T05:10:48;20.20;;;3.40;;
46216;SDS011;47258;59.424;13.482;2022-10-16T05:13:15;23.85;;;4.15;;
46216;SDS011;47258;59.424;13.482;2022-10-16T05:15:46;30.77;;;3.80;;
46216;SDS011;47258;59.424;13.482;2022-10-16T05:18:13;20.35;;;3.42;;
46216;SDS011;47258;59.424;13.482;2022-10-16T05:20:40;21.10;;;4.40;;
46216;SDS011;47258;59.424;13.482;2022-10-16T05:23:08;18.25;;;2.85;;
46216;SDS011;47258;59.424;13.482;2022-10-16T05:25:36;14.48;;;3.40;;
46216;SDS011;47258;59.424;13.482;2022-10-16T05:28:03;22.50;;;3.40;;
46216;SDS011;47258;59.424;13.482;2022-10-16T05:30:30;17.55;;;3.50;;
46216;SDS011;47258;59.424;13.482;2022-10-16T05:32:57;21.20;;;3.58;;
46216;SDS011;47258;59.424;13.482;2022-10-16T05:35:24;13.88;;;3.45;;
46216;SDS011;47258;59.424;13.482;2022-10-16T05:37:52;17.25;;;4.45;;
46216;SDS011;47258;59.424;13.482;2022-10-16T05:40:20;27.48;;;3.92;;
46216;SDS011;47258;59.424;13.482;2022-10-16T05:42:47;22.08;;;2.92;;
46216;SDS011;47258;59.424;13.482;2022-10-16T05:45:14;25.50;;;4.32;;
46216;SDS011;47258;59.424;13.482;2022-10-16T05:47:41;15.98;;;2.90;;
46216;SDS011;47258;59.424;13.482;2022-10-16T05:50:08;21.33;;;4.00;;
46216;SDS011;47258;59.424;13.482;2022-10-16T05:52:35;20.50;;;4.22;;
46216;SDS011;47258;59.424;13.482;2022-10-16T05:55:02;22.80;;;5.10;;
46216;SDS011;47258;59.424;13.482;2022-10-16T05:57:31;21.15;;;3.58;;
46216;SDS011;47258;59.424;13.482;2022-10-16T05:59:58;24.90;;;6.15;;
46216;SDS011;47258;59.424;13.482;2022-10-16T06:02:25;18.58;;;3.78;;
46216;SDS011;47258;59.424;13.482;2022-10-16T06:04:52;32.38;;;4.45;;
46216;SDS011;47258;59.424;13.482;2022-10-16T06:07:19;21.25;;;4.25;;
46216;SDS011;47258;59.424;13.482;2022-10-16T06:09:47;16.70;;;3.25;;
46216;SDS011;47258;59.424;13.482;2022-10-16T06:12:15;22.15;;;3.80;;
46216;SDS011;47258;59.424;13.482;2022-10-16T06:14:43;24.85;;;3.90;;
46216;SDS011;47258;59.424;13.482;2022-10-16T06:19:38;23.55;;;5.45;;
46216;SDS011;47258;59.424;13.482;2022-10-16T06:22:06;26.58;;;8.20;;
46216;SDS011;47258;59.424;13.482;2022-10-16T06:24:33;83.43;;;38.85;;
46216;SDS011;47258;59.424;13.482;2022-10-16T06:27:00;49.40;;;21.98;;
46216;SDS011;47258;59.424;13.482;2022-10-16T06:29:27;18.67;;;6.65;;
46216;SDS011;47258;59.424;13.482;2022-10-16T06:31:55;13.77;;;5.30;;
46216;SDS011;47258;59.424;13.482;2022-10-16T06:34:22;19.50;;;5.10;;
46216;SDS011;47258;59.424;13.482;2022-10-16T06:36:49;19.23;;;4.97;;
46216;SDS011;47258;59.424;13.482;2022-10-16T06:39:16;17.42;;;3.67;;
46216;SDS011;47258;59.424;13.482;2022-10-16T06:41:43;30.02;;;4.80;;
46216;SDS011;47258;59.424;13.482;2022-10-16T06:44:10;18.63;;;3.42;;
46216;SDS011;47258;59.424;13.482;2022-10-16T06:46:37;23.00;;;3.78;;
46216;SDS011;47258;59.424;13.482;2022-10-16T06:49:05;25.60;;;4.50;;
46216;SDS011;47258;59.424;13.482;2022-10-16T06:51:32;21.35;;;3.78;;
46216;SDS011;47258;59.424;13.482;2022-10-16T06:54:01;30.67;;;5.10;;
46216;SDS011;47258;59.424;13.482;2022-10-16T06:56:28;27.23;;;5.78;;
46216;SDS011;47258;59.424;13.482;2022-10-16T06:58:56;24.67;;;4.13;;
46216;SDS011;47258;59.424;13.482;2022-10-16T07:01:24;16.63;;;3.92;;
46216;SDS011;47258;59.424;13.482;2022-10-16T07:03:51;24.10;;;4.55;;
46216;SDS011;47258;59.424;13.482;2022-10-16T07:06:20;18.60;;;3.47;;
46216;SDS011;47258;59.424;13.482;2022-10-16T07:08:48;26.38;;;3.53;;
46216;SDS011;47258;59.424;13.482;2022-10-16T07:11:16;22.38;;;3.75;;
46216;SDS011;47258;59.424;13.482;2022-10-16T07:13:45;21.30;;;4.05;;
46216;SDS011;47258;59.424;13.482;2022-10-16T07:16:13;18.55;;;4.03;;
46216;SDS011;47258;59.424;13.482;2022-10-16T07:18:41;19.38;;;4.50;;
46216;SDS011;47258;59.424;13.482;2022-10-16T07:21:11;13.70;;;3.55;;
46216;SDS011;47258;59.424;13.482;2022-10-16T07:23:41;26.00;;;4.60;;
46216;SDS011;47258;59.424;13.482;2022-10-16T07:26:08;24.90;;;3.90;;
46216;SDS011;47258;59.424;13.482;2022-10-16T07:28:36;17.52;;;4.50;;
46216;SDS011;47258;59.424;13.482;2022-10-16T07:31:05;24.02;;;4.53;;
46216;SDS011;47258;59.424;13.482;2022-10-16T07:33:35;17.27;;;3.17;;
46216;SDS011;47258;59.424;13.482;2022-10-16T07:36:03;15.95;;;3.25;;
46216;SDS011;47258;59.424;13.482;2022-10-16T07:38:31;23.42;;;3.50;;
46216;SDS011;47258;59.424;13.482;2022-10-16T07:41:00;26.27;;;4.28;;
46216;SDS011;47258;59.424;13.482;2022-10-16T07:43:29;29.95;;;5.10;;
46216;SDS011;47258;59.424;13.482;2022-10-16T07:45:56;18.40;;;3.65;;
46216;SDS011;47258;59.424;13.482;2022-10-16T07:48:26;26.20;;;4.25;;
46216;SDS011;47258;59.424;13.482;2022-10-16T07:50:56;16.88;;;3.42;;
46216;SDS011;47258;59.424;13.482;2022-10-16T07:53:24;14.45;;;3.10;;
46216;SDS011;47258;59.424;13.482;2022-10-16T07:55:51;19.05;;;4.03;;
46216;SDS011;47258;59.424;13.482;2022-10-16T07:58:19;26.02;;;4.68;;
46216;SDS011;47258;59.424;13.482;2022-10-16T08:00:46;19.05;;;3.83;;
46216;SDS011;47258;59.424;13.482;2022-10-16T08:03:13;21.70;;;3.45;;
46216;SDS011;47258;59.424;13.482;2022-10-16T08:05:40;29.92;;;5.15;;
46216;SDS011;47258;59.424;13.482;2022-10-16T08:08:10;21.67;;;4.93;;
46216;SDS011;47258;59.424;13.482;2022-10-16T08:10:39;17.58;;;3.30;;
46216;SDS011;47258;59.424;13.482;2022-10-16T08:13:06;18.80;;;5.35;;
46216;SDS011;47258;59.424;13.482;2022-10-16T08:15:35;15.07;;;3.75;;
46216;SDS011;47258;59.424;13.482;2022-10-16T08:18:02;13.05;;;3.92;;
46216;SDS011;47258;59.424;13.482;2022-10-16T08:20:31;25.73;;;3.27;;
46216;SDS011;47258;59.424;13.482;2022-10-16T08:22:59;28.48;;;5.15;;
46216;SDS011;47258;59.424;13.482;2022-10-16T08:25:27;17.23;;;3.63;;
46216;SDS011;47258;59.424;13.482;2022-10-16T08:27:54;14.20;;;3.78;;
46216;SDS011;47258;59.424;13.482;2022-10-16T08:30:22;15.02;;;2.53;;
46216;SDS011;47258;59.424;13.482;2022-10-16T08:32:51;23.47;;;3.73;;
46216;SDS011;47258;59.424;13.482;2022-10-16T08:35:18;24.80;;;3.50;;
46216;SDS011;47258;59.424;13.482;2022-10-16T08:37:45;20.58;;;3.88;;
46216;SDS011;47258;59.424;13.482;2022-10-16T08:40:15;22.27;;;3.10;;
46216;SDS011;47258;59.424;13.482;2022-10-16T08:42:52;18.80;;;2.67;;
46216;SDS011;47258;59.424;13.482;2022-10-16T08:45:34;15.82;;;2.67;;
46216;SDS011;47258;59.424;13.482;2022-10-16T08:48:11;15.27;;;3.40;;
46216;SDS011;47258;59.424;13.482;2022-10-16T08:50:43;19.67;;;3.65;;
46216;SDS011;47258;59.424;13.482;2022-10-16T08:53:14;15.63;;;2.55;;
46216;SDS011;47258;59.424;13.482;2022-10-16T08:55:45;13.55;;;2.85;;
46216;SDS011;47258;59.424;13.482;2022-10-16T08:58:16;16.75;;;3.33;;
46216;SDS011;47258;59.424;13.482;2022-10-16T09:00:44;15.23;;;3.15;;
46216;SDS011;47258;59.424;13.482;2022-10-16T09:03:18;21.40;;;4.20;;
46216;SDS011;47258;59.424;13.482;2022-10-16T09:06:06;14.23;;;4.00;;
46216;SDS011;47258;59.424;13.482;2022-10-16T09:08:43;14.07;;;3.20;;
46216;SDS011;47258;59.424;13.482;2022-10-16T09:11:18;19.27;;;2.83;;
46216;SDS011;47258;59.424;13.482;2022-10-16T09:13:58;18.63;;;3.58;;
46216;SDS011;47258;59.424;13.482;2022-10-16T09:16:30;10.70;;;2.55;;
46216;SDS011;47258;59.424;13.482;2022-10-16T09:19:03;11.00;;;2.63;;
46216;SDS011;47258;59.424;13.482;2022-10-16T09:21:40;19.23;;;3.67;;
46216;SDS011;47258;59.424;13.482;2022-10-16T09:24:10;17.58;;;4.03;;
46216;SDS011;47258;59.424;13.482;2022-10-16T09:26:40;12.48;;;2.67;;
46216;SDS011;47258;59.424;13.482;2022-10-16T09:29:08;19.15;;;2.92;;
46216;SDS011;47258;59.424;13.482;2022-10-16T09:31:38;11.05;;;4.00;;
46216;SDS011;47258;59.424;13.482;2022-10-16T09:34:08;15.43;;;3.72;;
46216;SDS011;47258;59.424;13.482;2022-10-16T09:36:44;13.27;;;3.25;;
46216;SDS011;47258;59.424;13.482;2022-10-16T09:39:12;24.15;;;4.65;;
46216;SDS011;47258;59.424;13.482;2022-10-16T09:41:39;13.40;;;3.28;;
46216;SDS011;47258;59.424;13.482;2022-10-16T09:44:15;15.25;;;4.68;;
46216;SDS011;47258;59.424;13.482;2022-10-16T09:46:47;22.33;;;4.93;;
46216;SDS011;47258;59.424;13.482;2022-10-16T09:49:20;10.57;;;3.28;;
46216;SDS011;47258;59.424;13.482;2022-10-16T09:51:49;17.92;;;3.33;;
46216;SDS011;47258;59.424;13.482;2022-10-16T09:54:17;10.07;;;2.55;;
46216;SDS011;47258;59.424;13.482;2022-10-16T09:56:46;19.73;;;3.38;;
46216;SDS011;47258;59.424;13.482;2022-10-16T09:59:17;14.48;;;3.60;;
46216;SDS011;47258;59.424;13.482;2022-10-16T10:01:45;15.52;;;3.83;;
46216;SDS011;47258;59.424;13.482;2022-10-16T10:04:14;13.85;;;3.25;;
46216;SDS011;47258;59.424;13.482;2022-10-16T10:06:44;18.13;;;3.70;;
46216;SDS011;47258;59.424;13.482;2022-10-16T10:09:16;20.23;;;3.80;;
46216;SDS011;47258;59.424;13.482;2022-10-16T10:11:50;15.80;;;3.05;;
46216;SDS011;47258;59.424;13.482;2022-10-16T10:14:22;13.68;;;2.95;;
46216;SDS011;47258;59.424;13.482;2022-10-16T10:16:52;27.65;;;4.00;;
46216;SDS011;47258;59.424;13.482;2022-10-16T10:19:27;19.90;;;3.42;;
46216;SDS011;47258;59.424;13.482;2022-10-16T10:21:55;9.35;;;2.90;;
46216;SDS011;47258;59.424;13.482;2022-10-16T10:24:22;10.40;;;3.38;;
46216;SDS011;47258;59.424;13.482;2022-10-16T10:26:51;14.25;;;2.60;;
46216;SDS011;47258;59.424;13.482;2022-10-16T10:29:26;13.25;;;3.95;;
46216;SDS011;47258;59.424;13.482;2022-10-16T10:34:38;15.18;;;3.35;;
46216;SDS011;47258;59.424;13.482;2022-10-16T10:37:31;14.27;;;3.22;;
46216;SDS011;47258;59.424;13.482;2022-10-16T10:40:09;10.27;;;3.63;;
46216;SDS011;47258;59.424;13.482;2022-10-16T10:42:46;9.57;;;3.53;;
46216;SDS011;47258;59.424;13.482;2022-10-16T10:45:22;15.65;;;3.53;;
46216;SDS011;47258;59.424;13.482;2022-10-16T10:47:59;11.52;;;3.33;;
46216;SDS011;47258;59.424;13.482;2022-10-16T10:50:34;26.88;;;5.07;;
46216;SDS011;47258;59.424;13.482;2022-10-16T10:53:11;24.40;;;5.20;;
46216;SDS011;47258;59.424;13.482;2022-10-16T10:55:48;22.70;;;4.47;;
46216;SDS011;47258;59.424;13.482;2022-10-16T10:58:38;12.85;;;3.40;;
46216;SDS011;47258;59.424;13.482;2022-10-16T11:01:29;18.17;;;3.80;;
46216;SDS011;47258;59.424;13.482;2022-10-16T11:04:08;6.07;;;2.95;;
46216;SDS011;47258;59.424;13.482;2022-10-16T11:06:46;12.88;;;3.42;;
46216;SDS011;47258;59.424;13.482;2022-10-16T11:09:18;15.25;;;3.88;;
46216;SDS011;47258;59.424;13.482;2022-10-16T11:11:50;9.25;;;2.80;;
46216;SDS011;47258;59.424;13.482;2022-10-16T11:14:22;8.02;;;3.30;;
46216;SDS011;47258;59.424;13.482;2022-10-16T11:16:55;16.65;;;4.07;;
46216;SDS011;47258;59.424;13.482;2022-10-16T11:19:28;15.10;;;3.42;;
46216;SDS011;47258;59.424;13.482;2022-10-16T11:22:03;17.20;;;3.38;;
46216;SDS011;47258;59.424;13.482;2022-10-16T11:24:40;14.38;;;3.80;;
46216;SDS011;47258;59.424;13.482;2022-10-16T11:27:14;11.40;;;4.68;;
46216;SDS011;47258;59.424;13.482;2022-10-16T11:29:45;14.50;;;3.30;;
46216;SDS011;47258;59.424;13.482;2022-10-16T11:32:19;10.88;;;4.82;;
46216;SDS011;47258;59.424;13.482;2022-10-16T11:34:50;16.38;;;4.50;;
46216;SDS011;47258;59.424;13.482;2022-10-16T11:37:23;17.08;;;4.75;;
46216;SDS011;47258;59.424;13.482;2022-10-16T11:39:58;15.38;;;4.38;;
46216;SDS011;47258;59.424;13.482;2022-10-16T11:42:41;17.27;;;4.40;;
46216;SDS011;47258;59.424;13.482;2022-10-16T11:45:17;14.70;;;5.47;;
46216;SDS011;47258;59.424;13.482;2022-10-16T11:47:54;11.75;;;3.85;;
46216;SDS011;47258;59.424;13.482;2022-10-16T11:50:29;21.27;;;5.30;;
46216;SDS011;47258;59.424;13.482;2022-10-16T11:53:01;15.10;;;4.80;;
46216;SDS011;47258;59.424;13.482;2022-10-16T11:55:38;11.70;;;4.03;;
46216;SDS011;47258;59.424;13.482;2022-10-16T11:58:07;9.90;;;2.40;;
46216;SDS011;47258;59.424;13.482;2022-10-16T12:00:40;5.50;;;2.08;;
46216;SDS011;47258;59.424;13.482;2022-10-16T12:03:15;8.77;;;2.33;;
46216;SDS011;47258;59.424;13.482;2022-10-16T12:05:52;7.90;;;1.88;;
46216;SDS011;47258;59.424;13.482;2022-10-16T12:11:03;6.15;;;2.00;;
46216;SDS011;47258;59.424;13.482;2022-10-16T12:13:34;13.07;;;4.20;;
46216;SDS011;47258;59.424;13.482;2022-10-16T12:16:06;8.57;;;2.92;;
46216;SDS011;47258;59.424;13.482;2022-10-16T12:18:47;8.23;;;3.88;;
46216;SDS011;47258;59.424;13.482;2022-10-16T12:21:15;8.27;;;3.25;;
46216;SDS011;47258;59.424;13.482;2022-10-16T12:23:47;6.63;;;1.92;;
46216;SDS011;47258;59.424;13.482;2022-10-16T12:26:24;4.22;;;2.13;;
46216;SDS011;47258;59.424;13.482;2022-10-16T12:28:53;5.85;;;2.03;;
46216;SDS011;47258;59.424;13.482;2022-10-16T12:31:21;3.13;;;1.75;;
46216;SDS011;47258;59.424;13.482;2022-10-16T12:33:55;2.28;;;2.00;;
46216;SDS011;47258;59.424;13.482;2022-10-16T12:36:27;3.13;;;1.50;;
46216;SDS011;47258;59.424;13.482;2022-10-16T12:38:57;1.73;;;1.23;;
46216;SDS011;47258;59.424;13.482;2022-10-16T12:41:26;4.63;;;1.42;;
46216;SDS011;47258;59.424;13.482;2022-10-16T12:43:55;5.63;;;1.00;;
46216;SDS011;47258;59.424;13.482;2022-10-16T12:46:37;1.80;;;0.80;;
46216;SDS011;47258;59.424;13.482;2022-10-16T12:49:20;5.10;;;1.65;;
46216;SDS011;47258;59.424;13.482;2022-10-16T12:51:50;3.20;;;2.13;;
46216;SDS011;47258;59.424;13.482;2022-10-16T12:54:19;1.60;;;1.00;;
46216;SDS011;47258;59.424;13.482;2022-10-16T12:57:01;2.67;;;0.85;;
46216;SDS011;47258;59.424;13.482;2022-10-16T12:59:52;6.63;;;1.05;;
46216;SDS011;47258;59.424;13.482;2022-10-16T13:02:47;3.25;;;0.80;;
46216;SDS011;47258;59.424;13.482;2022-10-16T13:05:31;2.65;;;0.52;;
46216;SDS011;47258;59.424;13.482;2022-10-16T13:08:09;1.37;;;0.80;;
46216;SDS011;47258;59.424;13.482;2022-10-16T13:10:52;3.03;;;0.70;;
46216;SDS011;47258;59.424;13.482;2022-10-16T13:13:34;2.25;;;0.60;;
46216;SDS011;47258;59.424;13.482;2022-10-16T13:16:14;6.60;;;1.10;;
46216;SDS011;47258;59.424;13.482;2022-10-16T13:18:59;4.55;;;0.93;;
46216;SDS011;47258;59.424;13.482;2022-10-16T13:21:38;2.30;;;0.70;;
46216;SDS011;47258;59.424;13.482;2022-10-16T13:24:12;2.05;;;0.63;;
46216;SDS011;47258;59.424;13.482;2022-10-16T13:26:49;1.73;;;0.80;;
46216;SDS011;47258;59.424;13.482;2022-10-16T13:29:23;6.63;;;1.05;;
46216;SDS011;47258;59.424;13.482;2022-10-16T13:31:55;4.38;;;0.85;;
46216;SDS011;47258;59.424;13.482;2022-10-16T13:34:23;1.15;;;0.80;;
46216;SDS011;47258;59.424;13.482;2022-10-16T13:36:52;4.13;;;0.98;;
46216;SDS011;47258;59.424;13.482;2022-10-16T13:39:22;4.43;;;1.05;;
46216;SDS011;47258;59.424;13.482;2022-10-16T13:42:03;6.50;;;1.38;;
46216;SDS011;47258;59.424;13.482;2022-10-16T13:44:36;5.97;;;1.20;;
46216;SDS011;47258;59.424;13.482;2022-10-16T13:47:10;7.97;;;1.40;;
46216;SDS011;47258;59.424;13.482;2022-10-16T13:49:42;6.68;;;1.33;;
46216;SDS011;47258;59.424;13.482;2022-10-16T13:52:15;6.63;;;2.05;;
46216;SDS011;47258;59.424;13.482;2022-10-16T13:54:44;10.82;;;2.42;;
46216;SDS011;47258;59.424;13.482;2022-10-16T13:57:12;3.17;;;1.70;;
46216;SDS011;47258;59.424;13.482;2022-10-16T13:59:41;2.90;;;1.17;;
46216;SDS011;47258;59.424;13.482;2022-10-16T14:02:13;4.40;;;0.88;;
46216;SDS011;47258;59.424;13.482;2022-10-16T14:04:46;5.60;;;1.63;;
46216;SDS011;47258;59.424;13.482;2022-10-16T14:07:13;2.97;;;0.70;;
46216;SDS011;47258;59.424;13.482;2022-10-16T14:09:48;2.30;;;1.00;;
46216;SDS011;47258;59.424;13.482;2022-10-16T14:12:16;5.07;;;1.03;;
46216;SDS011;47258;59.424;13.482;2022-10-16T14:14:45;3.03;;;0.70;;
46216;SDS011;47258;59.424;13.482;2022-10-16T14:17:14;1.85;;;0.63;;
46216;SDS011;47258;59.424;13.482;2022-10-16T14:19:45;3.78;;;2.28;;
46216;SDS011;47258;59.424;13.482;2022-10-16T14:22:19;17.20;;;6.32;;
46216;SDS011;47258;59.424;13.482;2022-10-16T14:24:52;3.90;;;2.65;;
46216;SDS011;47258;59.424;13.482;2022-10-16T14:27:27;5.38;;;1.55;;
46216;SDS011;47258;59.424;13.482;2022-10-16T14:30:10;5.22;;;1.10;;
46216;SDS011;47258;59.424;13.482;2022-10-16T14:32:42;1.65;;;0.70;;
46216;SDS011;47258;59.424;13.482;2022-10-16T14:35:24;5.85;;;1.15;;
46216;SDS011;47258;59.424;13.482;2022-10-16T14:37:53;3.55;;;1.88;;
46216;SDS011;47258;59.424;13.482;2022-10-16T14:40:22;6.97;;;1.10;;
46216;SDS011;47258;59.424;13.482;2022-10-16T14:42:51;9.45;;;1.48;;
46216;SDS011;47258;59.424;13.482;2022-10-16T14:45:20;7.32;;;1.85;;
46216;SDS011;47258;59.424;13.482;2022-10-16T14:47:50;4.38;;;1.45;;
46216;SDS011;47258;59.424;13.482;2022-10-16T14:50:18;2.90;;;0.95;;
46216;SDS011;47258;59.424;13.482;2022-10-16T14:52:45;11.02;;;6.07;;
46216;SDS011;47258;59.424;13.482;2022-10-16T14:55:14;17.70;;;10.00;;
46216;SDS011;47258;59.424;13.482;2022-10-16T14:57:42;5.40;;;1.75;;